Strona główna
METAR-TAF:

METAR-TAF

Lotnisko :

Pontoise, Francja

Szerokość geograficzna: 49-05-48N, Długość geograficzna: 002-02-27E, wysokość: 99 m

Aktualna obserwacja pogody

Raport powstał 19 minut temu, godzina 08:30 UTC
Wiatr 11 kt od zachodnio-południowy zachód
Temperatura 6°C
Wilgotność 87%
Ciśnienie 1004 hPa
Widzialność 10 km lub więcej

METAR: LFPT 120830Z AUTO 24011KT 9999 ///TCU 06/04 Q1004

czas: 09:49 (08:49 UTC)


TAF: brakujący

Obserwacja i prognoza pogody dla ponad 4000 lotnisk (raport METAR i TAF).

Dostępne stacje oznaczono żółtymi i czerwonymi punktami na mapie.

Najedź kursorem aby zobaczyć nazwę stacji.

Kliknij aby zobaczyć obserwacje i prognozy pogody.

Aby zmienić mapę: kliknij na zielony przycisk z czarnym krzyżykiem, aby powiększyć; na zielony przycisk z myślnikiem, aby pomniejszyć; na zielone strzałki, aby przejść do map sąsiednich.


METAR-TAF: